createdAt,value
2023-12-09T00:00:29.958Z,77.8125
2023-12-09T00:03:41.085Z,77.88574
2023-12-09T00:05:40.882Z,77.41211
2023-12-09T00:07:40.810Z,77.58203
2023-12-09T00:09:40.940Z,77.5957
2023-12-09T00:11:40.716Z,77.46777
2023-12-09T00:13:40.823Z,77.55957
2023-12-09T00:15:40.840Z,77.70605
2023-12-09T00:18:35.203Z,77.47754
2023-12-09T00:20:34.848Z,77.83887
2023-12-09T00:22:34.837Z,78.05469
2023-12-09T00:24:35.027Z,77.42676
2023-12-09T00:26:34.883Z,77.56641
2023-12-09T00:28:34.880Z,77.6709
2023-12-09T00:30:35.279Z,77.80176
2023-12-09T00:33:55.228Z,77.88379
2023-12-09T00:35:54.991Z,77.67285
2023-12-09T00:37:54.871Z,77.63184
2023-12-09T00:39:54.803Z,77.27246
2023-12-09T00:41:54.924Z,77.17188
2023-12-09T00:43:54.724Z,76.78613
2023-12-09T00:45:54.821Z,77.53906
2023-12-09T00:49:03.908Z,77.27246
2023-12-09T00:51:03.653Z,77.1582
2023-12-09T00:53:03.703Z,77.30078
2023-12-09T00:55:03.898Z,76.93262
2023-12-09T00:57:03.566Z,76.90527
2023-12-09T00:59:03.844Z,77.08789
2023-12-09T01:01:03.568Z,76.80859
2023-12-09T01:03:54.191Z,77.03809
2023-12-09T01:05:53.726Z,76.99414
2023-12-09T01:07:53.825Z,77.24121
2023-12-09T01:09:53.684Z,76.89648
2023-12-09T01:11:55.281Z,77.19531
2023-12-09T01:13:53.734Z,77.30566
2023-12-09T01:15:53.707Z,77.18164
2023-12-09T01:19:13.064Z,77.31543
2023-12-09T01:21:13.061Z,77.20508
2023-12-09T01:23:12.923Z,77.43848
2023-12-09T01:25:12.913Z,77.19336
2023-12-09T01:27:12.974Z,77.40234
2023-12-09T01:29:12.962Z,77.36133
2023-12-09T01:31:12.959Z,77.76367
2023-12-09T01:34:40.427Z,77.45898
2023-12-09T01:36:39.887Z,77.77539
2023-12-09T01:38:40.111Z,77.85547
2023-12-09T01:40:39.870Z,77.79102
2023-12-09T01:42:39.972Z,77.76367
2023-12-09T01:44:40.008Z,77.63086
2023-12-09T01:46:39.894Z,77.40137
2023-12-09T01:49:22.999Z,77.39453
2023-12-09T01:51:22.869Z,77.37402
2023-12-09T01:53:22.587Z,77.00293
2023-12-09T01:55:22.777Z,76.80176
2023-12-09T01:57:22.779Z,77.19531
2023-12-09T01:59:22.897Z,77.56836
2023-12-09T02:01:22.838Z,77.51367
2023-12-09T02:04:32.622Z,77.56348
2023-12-09T02:06:32.544Z,77.53516
2023-12-09T02:08:32.424Z,77.51074
2023-12-09T02:10:32.468Z,77.57813
2023-12-09T02:12:32.552Z,77.83398
2023-12-09T02:14:32.755Z,77.8252
2023-12-09T02:16:32.578Z,77.89063
2023-12-09T02:20:24.449Z,77.90234
2023-12-09T02:22:24.739Z,77.97168
2023-12-09T02:24:24.585Z,77.74512
2023-12-09T02:26:24.597Z,77.88184
2023-12-09T02:28:24.449Z,77.96289
2023-12-09T02:30:24.573Z,77.92383
2023-12-09T02:32:25.099Z,78.05176
2023-12-09T02:35:25.573Z,77.95313
2023-12-09T02:37:25.526Z,77.88477
2023-12-09T02:39:25.740Z,77.39648
2023-12-09T02:41:25.807Z,77.64258
2023-12-09T02:43:25.597Z,77.7793
2023-12-09T02:45:25.810Z,77.92383
2023-12-09T02:47:25.881Z,78.15527
2023-12-09T02:50:23.058Z,78.06055
2023-12-09T02:52:23.011Z,78.2207
2023-12-09T02:54:23.158Z,78.30762
2023-12-09T02:56:23.064Z,78.12695
2023-12-09T02:58:22.963Z,78.17773
2023-12-09T03:00:23.110Z,78.1416
2023-12-09T03:02:22.876Z,78.21484
2023-12-09T03:05:49.305Z,77.96191
2023-12-09T03:07:49.156Z,78.33496
2023-12-09T03:09:49.188Z,78.00391
2023-12-09T03:11:49.161Z,78.12012
2023-12-09T03:13:49.203Z,78.10645
2023-12-09T03:15:49.185Z,78.07227
2023-12-09T03:17:49.598Z,78.09668
2023-12-09T03:20:09.959Z,78.11719
2023-12-09T03:22:09.688Z,77.89551
2023-12-09T03:24:09.827Z,77.61328
2023-12-09T03:26:09.579Z,77.99414
2023-12-09T03:28:09.598Z,78.28516
2023-12-09T03:30:09.829Z,78.1377
2023-12-09T03:32:09.774Z,78.09766
2023-12-09T03:34:09.780Z,78.34473
2023-12-09T03:35:21.168Z,77.83594
2023-12-09T03:37:21.264Z,77.94434
2023-12-09T03:39:21.446Z,78.06055
2023-12-09T03:41:25.998Z,78.1377
2023-12-09T03:43:21.246Z,78.33594
2023-12-09T03:45:21.318Z,78.55566
2023-12-09T03:47:29.901Z,78.19336
2023-12-09T03:49:21.267Z,77.91211
2023-12-09T03:51:20.204Z,78.13477
2023-12-09T03:53:19.907Z,78.29004
2023-12-09T03:55:19.878Z,78.04688
2023-12-09T03:57:19.945Z,77.67383
2023-12-09T03:59:19.883Z,77.99023
2023-12-09T04:01:20.089Z,77.94141
2023-12-09T04:03:20.626Z,78.12207
2023-12-09T04:06:27.561Z,78.07617
2023-12-09T04:08:28.587Z,78.15723
2023-12-09T04:10:27.630Z,78.22754
2023-12-09T04:12:28.255Z,78.33203
2023-12-09T04:14:27.941Z,78.04688
2023-12-09T04:16:27.587Z,78.02832
2023-12-09T04:18:27.629Z,77.98633
2023-12-09T04:21:32.269Z,78.12207
2023-12-09T04:23:32.133Z,78.17188
2023-12-09T04:25:32.093Z,77.98438
2023-12-09T04:27:32.265Z,78.17676
2023-12-09T04:29:32.179Z,77.90137
2023-12-09T04:31:32.085Z,77.68652
2023-12-09T04:33:32.321Z,77.77051
2023-12-09T04:36:41.066Z,77.90234
2023-12-09T04:38:40.984Z,77.36035
2023-12-09T04:40:40.996Z,77.69336
2023-12-09T04:42:41.034Z,77.74414
2023-12-09T04:44:41.134Z,77.62207
2023-12-09T04:46:40.922Z,77.9082
2023-12-09T04:48:41.247Z,77.9375
2023-12-09T04:51:14.331Z,77.65234
2023-12-09T04:53:14.213Z,77.70313
2023-12-09T04:55:14.361Z,77.59961
2023-12-09T04:57:14.292Z,77.98633
2023-12-09T04:59:14.445Z,78.1123
2023-12-09T05:01:14.378Z,78.04199
2023-12-09T05:03:14.521Z,78.22266
2023-12-09T05:06:40.592Z,77.8623
2023-12-09T05:08:40.544Z,78.16016
2023-12-09T05:10:40.463Z,77.73242
2023-12-09T05:12:40.669Z,77.67285
2023-12-09T05:14:40.410Z,77.63184
2023-12-09T05:16:40.543Z,77.64063
2023-12-09T05:18:40.678Z,77.73633
2023-12-09T05:21:47.677Z,77.44629
2023-12-09T05:23:47.604Z,77.7666
2023-12-09T05:25:47.716Z,77.77539
2023-12-09T05:27:47.738Z,77.3877
2023-12-09T05:29:47.473Z,77.37891
2023-12-09T05:31:47.645Z,77.12109
2023-12-09T05:33:47.877Z,77.44629
2023-12-09T05:37:09.780Z,77.32715
2023-12-09T05:39:09.547Z,77.20801
2023-12-09T05:41:09.269Z,77.1123
2023-12-09T05:43:09.404Z,77.38965
2023-12-09T05:45:09.362Z,77.55176
2023-12-09T05:47:09.209Z,77.48438
2023-12-09T05:49:09.511Z,77.58105
2023-12-09T05:51:48.636Z,77.53711
2023-12-09T05:53:48.631Z,77.49414
2023-12-09T05:55:48.654Z,77.71973
2023-12-09T05:57:48.718Z,77.70605
2023-12-09T05:59:48.544Z,77.64453
2023-12-09T06:01:48.714Z,77.58301
2023-12-09T06:03:48.652Z,77.52148
2023-12-09T06:05:48.729Z,77.40723
2023-12-09T06:07:18.116Z,77.76563
2023-12-09T06:09:18.139Z,78.02832
2023-12-09T06:11:18.061Z,77.7041
2023-12-09T06:13:18.107Z,77.7627
2023-12-09T06:15:18.212Z,77.38184
2023-12-09T06:17:18.042Z,77.75586
2023-12-09T06:19:18.231Z,77.25098
2023-12-09T06:22:38.365Z,77.36914
2023-12-09T06:24:38.389Z,77.46582
2023-12-09T06:26:38.373Z,77.15918
2023-12-09T06:28:38.381Z,76.98828
2023-12-09T06:30:38.498Z,77.29102
2023-12-09T06:32:38.405Z,77.1377
2023-12-09T06:34:38.450Z,77.03809
2023-12-09T06:38:10.890Z,76.37012
2023-12-09T06:40:11.049Z,77.08105
2023-12-09T06:42:10.917Z,76.7334
2023-12-09T06:44:10.860Z,76.88867
2023-12-09T06:46:10.781Z,76.52539
2023-12-09T06:48:11.117Z,76.76953
2023-12-09T06:50:10.792Z,76.12305
2023-12-09T06:53:11.300Z,76.2832
2023-12-09T06:55:11.246Z,75.89453
2023-12-09T06:57:11.266Z,75.73438
2023-12-09T06:59:11.147Z,76.34863
2023-12-09T07:01:11.361Z,76.57324
2023-12-09T07:03:11.328Z,76.53809
2023-12-09T07:05:11.241Z,76.43164
2023-12-09T07:08:23.368Z,75.91504
2023-12-09T07:10:23.294Z,76.06836
2023-12-09T07:12:23.329Z,75.61523
2023-12-09T07:14:23.386Z,75.69824
2023-12-09T07:16:23.447Z,75.57227
2023-12-09T07:18:23.472Z,75.99902
2023-12-09T07:20:23.244Z,75.27148
2023-12-09T07:23:32.285Z,74.83691
2023-12-09T07:25:32.359Z,74.50781
2023-12-09T07:27:33.067Z,74.87109
2023-12-09T07:29:32.805Z,74.39648
2023-12-09T07:31:32.326Z,74.32813
2023-12-09T07:33:32.759Z,74.66016
2023-12-09T07:35:32.372Z,74.96387
2023-12-09T07:38:38.185Z,74.99316
2023-12-09T07:40:37.294Z,74.80469
2023-12-09T07:42:37.353Z,73.93457
2023-12-09T07:44:37.268Z,73.94238
2023-12-09T07:46:37.289Z,74.32129
2023-12-09T07:48:37.481Z,73.91699
2023-12-09T07:50:37.470Z,74.23242
2023-12-09T07:53:28.817Z,74.44238
2023-12-09T07:55:28.795Z,73.14941
2023-12-09T07:57:29.184Z,73.25977
2023-12-09T07:59:28.985Z,73.33984
2023-12-09T08:01:28.822Z,74.24414
2023-12-09T08:03:29.119Z,73.6748
2023-12-09T08:05:28.808Z,73.16797
2023-12-09T08:08:29.295Z,72.66016
2023-12-09T08:10:29.253Z,73.13574
2023-12-09T08:12:29.735Z,72.78125
2023-12-09T08:14:29.396Z,72.17188
2023-12-09T08:16:29.255Z,73.34668
2023-12-09T08:18:29.527Z,73.18066
2023-12-09T08:20:29.278Z,72.23535
2023-12-09T08:23:43.938Z,72.32129
2023-12-09T08:25:44.037Z,73.16113
2023-12-09T08:27:44.212Z,73.04395
2023-12-09T08:29:43.919Z,73.05957
2023-12-09T08:31:43.879Z,72.15527
2023-12-09T08:33:44.193Z,71.41211
2023-12-09T08:35:44.021Z,70.64258
2023-12-09T08:38:37.554Z,71.44531
2023-12-09T08:40:37.618Z,71.24219
2023-12-09T08:42:37.686Z,70.54785
2023-12-09T08:44:37.589Z,70.88574
2023-12-09T08:46:37.632Z,70.85059
2023-12-09T08:48:37.909Z,70.68555
2023-12-09T08:50:37.604Z,71.6709
2023-12-09T08:52:37.652Z,71.7627
2023-12-09T08:54:01.093Z,71.71973
2023-12-09T08:56:01.193Z,70.70605
2023-12-09T08:58:01.049Z,70.56348
2023-12-09T09:00:01.140Z,70.18359
2023-12-09T09:02:01.042Z,69.68359
2023-12-09T09:04:01.217Z,70.30566
2023-12-09T09:06:01.597Z,70.33301
2023-12-09T09:09:22.570Z,70.91699
2023-12-09T09:11:22.216Z,70.7168
2023-12-09T09:13:22.264Z,70.85352
2023-12-09T09:15:22.491Z,70.18555
2023-12-09T09:17:22.148Z,71.0625
2023-12-09T09:19:22.361Z,70.91797
2023-12-09T09:21:22.358Z,69.03027
2023-12-09T09:24:10.695Z,68.82031
2023-12-09T09:26:10.642Z,69.57617
2023-12-09T09:28:10.666Z,69.63672
2023-12-09T09:30:10.806Z,68.96777
2023-12-09T09:32:10.719Z,69.18555
2023-12-09T09:34:10.979Z,68.58008
2023-12-09T09:36:10.699Z,69.29688
2023-12-09T09:38:10.706Z,68.94336
2023-12-09T09:39:25.539Z,69.34473
2023-12-09T09:41:25.635Z,69.26758
2023-12-09T09:43:25.307Z,67.95117
2023-12-09T09:45:31.878Z,68.5293
2023-12-09T09:47:25.403Z,69.73047
2023-12-09T09:49:26.055Z,70.30859
2023-12-09T09:51:27.485Z,68.61133
2023-12-09T09:53:25.449Z,68.75488
2023-12-09T09:54:40.500Z,69.69141
2023-12-09T09:56:40.338Z,68.76074
2023-12-09T09:58:40.319Z,68.17285
2023-12-09T10:00:40.806Z,68.95898
2023-12-09T10:02:40.220Z,69.99023
2023-12-09T10:04:40.245Z,70.41211
2023-12-09T10:06:40.323Z,69.46191
2023-12-09T10:10:00.053Z,68.38379
2023-12-09T10:12:00.160Z,68.79004
2023-12-09T10:14:00.155Z,68.70313
2023-12-09T10:16:00.291Z,69.37207
2023-12-09T10:18:00.343Z,68.25488
2023-12-09T10:20:00.440Z,69.6543
2023-12-09T10:22:00.266Z,69.97363
2023-12-09T10:25:32.664Z,68.06152
2023-12-09T10:27:33.112Z,68.39355
2023-12-09T10:29:32.652Z,68.1416
2023-12-09T10:31:32.659Z,69.17773
2023-12-09T10:33:32.838Z,67.65918
2023-12-09T10:35:32.661Z,68.49121
2023-12-09T10:37:32.578Z,68.98145
2023-12-09T10:40:56.191Z,67.82031
2023-12-09T10:42:56.202Z,68.36426
2023-12-09T10:44:56.199Z,69.31543
2023-12-09T10:46:56.125Z,68.45117
2023-12-09T10:48:56.415Z,69.16602
2023-12-09T10:50:56.223Z,68.39551
2023-12-09T10:52:56.244Z,68.16113
2023-12-09T10:55:17.420Z,68.42285
2023-12-09T10:57:17.385Z,69.49023
2023-12-09T10:59:17.379Z,69.20801
2023-12-09T11:01:17.458Z,66.9043
2023-12-09T11:03:17.676Z,68.06934
2023-12-09T11:05:17.478Z,68.15918
2023-12-09T11:07:17.275Z,67.89063
2023-12-09T11:10:39.768Z,67.86719
2023-12-09T11:12:40.034Z,69.33496
2023-12-09T11:14:39.824Z,68.87793
2023-12-09T11:16:39.775Z,65.93262
2023-12-09T11:18:40.062Z,65.56348
2023-12-09T11:20:39.773Z,67.80957
2023-12-09T11:22:39.750Z,68.28809
2023-12-09T11:25:34.118Z,67.26074
2023-12-09T11:27:34.227Z,69.00879
2023-12-09T11:29:33.958Z,67.4209
2023-12-09T11:31:34.004Z,69.21484
2023-12-09T11:33:34.429Z,68.5293
2023-12-09T11:35:34.019Z,67.52832
2023-12-09T11:37:33.995Z,67.5791
2023-12-09T11:39:33.965Z,68.04102
2023-12-09T11:41:15.197Z,69.02734
2023-12-09T11:43:15.353Z,68.96875
2023-12-09T11:45:15.259Z,67.13086
2023-12-09T11:47:15.461Z,66.86816
2023-12-09T11:49:15.920Z,66.15137
2023-12-09T11:51:15.201Z,67.8623
2023-12-09T11:53:15.394Z,67.85254
2023-12-09T11:56:20.559Z,68.44531
2023-12-09T11:58:20.497Z,66.73145
2023-12-09T12:00:20.804Z,65.2334
2023-12-09T12:02:20.559Z,66.60645
2023-12-09T12:04:20.597Z,67.46094
2023-12-09T12:06:20.614Z,66.66797
2023-12-09T12:08:20.590Z,65.5293
2023-12-09T12:11:54.910Z,65.95508
2023-12-09T12:13:54.988Z,67.01855
2023-12-09T12:15:54.858Z,66.28711
2023-12-09T12:17:55.080Z,66.55176
2023-12-09T12:19:55.064Z,66.73145
2023-12-09T12:21:54.912Z,66.48926
2023-12-09T12:23:55.193Z,66.96289
2023-12-09T12:26:49.382Z,67.48047
2023-12-09T12:28:49.428Z,67.41895
2023-12-09T12:30:49.655Z,67.77832
2023-12-09T12:32:49.430Z,66.25586
2023-12-09T12:34:49.653Z,65.64551
2023-12-09T12:36:49.940Z,66.79492
2023-12-09T12:38:49.366Z,66.43555
2023-12-09T12:41:31.364Z,65.25195
2023-12-09T12:43:31.389Z,67.19434
2023-12-09T12:45:31.354Z,67.00195
2023-12-09T12:47:31.274Z,66.19434
2023-12-09T12:49:31.412Z,66.36621
2023-12-09T12:51:31.431Z,66.32031
2023-12-09T12:53:31.187Z,66.02441
2023-12-09T12:57:07.445Z,67.2793
2023-12-09T12:59:07.412Z,65.90527
2023-12-09T13:01:07.952Z,67.42188
2023-12-09T13:03:07.530Z,67.45605
2023-12-09T13:05:07.459Z,67.34863
2023-12-09T13:07:07.565Z,65.71973
2023-12-09T13:09:07.412Z,66.18457
2023-12-09T13:12:14.059Z,66.12793
2023-12-09T13:14:13.872Z,65.34668
2023-12-09T13:16:13.728Z,66.88867
2023-12-09T13:18:14.905Z,65.76367
2023-12-09T13:20:13.992Z,65.20215
2023-12-09T13:22:14.058Z,65.34766
2023-12-09T13:24:13.812Z,67.28613
2023-12-09T13:27:48.983Z,66.58398
2023-12-09T13:29:47.992Z,67.18848
2023-12-09T13:31:49.833Z,66.37109
2023-12-09T13:33:48.336Z,66.86035
2023-12-09T13:35:48.208Z,67.20117
2023-12-09T13:37:48.204Z,66.0127
2023-12-09T13:39:48.665Z,65.93555
2023-12-09T13:42:47.357Z,66.35059
2023-12-09T13:44:47.328Z,66.37207
2023-12-09T13:46:47.290Z,66.34668
2023-12-09T13:50:47.234Z,67.4541
2023-12-09T13:52:47.587Z,67.47266
2023-12-09T13:54:47.533Z,67.93066
2023-12-09T13:57:46.624Z,69.03125
2023-12-09T13:59:49.625Z,68.99609
2023-12-09T14:01:46.528Z,68.69434
2023-12-09T14:03:46.759Z,68.27832
2023-12-09T14:05:46.598Z,67.45313
2023-12-09T14:07:46.370Z,66.98438
2023-12-09T14:09:46.571Z,68.07129
2023-12-09T14:13:15.079Z,66.5459
2023-12-09T14:15:15.197Z,67.19727
2023-12-09T14:17:14.966Z,67.3457
2023-12-09T14:19:15.401Z,67.11328
2023-12-09T14:21:15.005Z,68.27832
2023-12-09T14:23:14.963Z,68.67969
2023-12-09T14:25:15.047Z,68.26953
2023-12-09T14:28:32.480Z,68.45703
2023-12-09T14:30:32.450Z,69.17188
2023-12-09T14:32:32.646Z,67.94727
2023-12-09T14:34:32.715Z,67.5752
2023-12-09T14:36:32.510Z,68.91309
2023-12-09T14:38:32.298Z,68.20313
2023-12-09T14:40:32.327Z,68.27637
2023-12-09T14:43:22.341Z,68.55957
2023-12-09T14:45:23.230Z,68.43359
2023-12-09T14:47:22.246Z,68.03711
2023-12-09T14:49:22.364Z,69.29688
2023-12-09T14:51:37.013Z,68.42285
2023-12-09T14:53:22.134Z,68.67383
2023-12-09T14:55:22.250Z,68.16992
2023-12-09T14:58:37.393Z,67.96289
2023-12-09T15:00:39.971Z,68.49316
2023-12-09T15:02:37.193Z,68.88477
2023-12-09T15:04:37.551Z,68.82813
2023-12-09T15:06:37.545Z,69.41504
2023-12-09T15:08:37.351Z,69.45117
2023-12-09T15:10:37.312Z,69.46777
2023-12-09T15:13:17.322Z,69.00977
2023-12-09T15:15:17.730Z,69.27539
2023-12-09T15:17:17.455Z,69.73926
2023-12-09T15:19:17.630Z,69.99316
2023-12-09T15:21:17.564Z,69.39063
2023-12-09T15:23:17.390Z,69.06055
2023-12-09T15:25:17.435Z,69.22461
2023-12-09T15:28:54.359Z,68.93359
2023-12-09T15:30:54.340Z,68.93262
2023-12-09T15:32:54.395Z,69.35059
2023-12-09T15:34:54.391Z,69.78125
2023-12-09T15:36:54.397Z,70.25879
2023-12-09T15:38:54.189Z,70.23145
2023-12-09T15:40:54.212Z,70.45996
2023-12-09T15:43:25.316Z,70.5752
2023-12-09T15:45:25.343Z,70.52637
2023-12-09T15:47:25.374Z,70.80371
2023-12-09T15:49:25.571Z,70.95703
2023-12-09T15:51:25.459Z,70.99121
2023-12-09T15:53:25.341Z,70.90234
2023-12-09T15:55:25.522Z,71.12793
2023-12-09T15:57:25.532Z,71.22363
2023-12-09T15:59:31.242Z,71.5459
2023-12-09T16:01:31.560Z,69.91016
2023-12-09T16:03:31.422Z,70.97656
2023-12-09T16:05:31.297Z,71.46484
2023-12-09T16:07:31.505Z,71.44922
2023-12-09T16:09:36.197Z,70.99609
2023-12-09T16:11:31.141Z,71.03906
2023-12-09T16:14:39.222Z,71.58984
2023-12-09T16:16:39.046Z,71.84082
2023-12-09T16:18:39.198Z,71.90625
2023-12-09T16:20:39.196Z,72.24609
2023-12-09T16:22:38.926Z,72.33887
2023-12-09T16:24:39.169Z,72.2627
2023-12-09T16:26:38.968Z,72.25
2023-12-09T16:29:19.106Z,72.22266
2023-12-09T16:31:19.572Z,72.63867
2023-12-09T16:33:19.408Z,72.68359
2023-12-09T16:35:19.265Z,72.58105
2023-12-09T16:37:19.137Z,70.77734
2023-12-09T16:39:19.314Z,71.2832
2023-12-09T16:41:19.291Z,72.10449
2023-12-09T16:44:31.210Z,72.48535
2023-12-09T16:46:31.040Z,72.37012
2023-12-09T16:48:31.421Z,72.10547
2023-12-09T16:50:31.337Z,72.63574
2023-12-09T16:52:31.331Z,72.7793
2023-12-09T16:54:31.282Z,72.58691
2023-12-09T16:56:31.147Z,72.43262
2023-12-09T17:00:09.765Z,72.48047
2023-12-09T17:02:09.593Z,72.49023
2023-12-09T17:04:09.898Z,72.69434
2023-12-09T17:06:09.548Z,72.70605
2023-12-09T17:08:11.962Z,72.86133
2023-12-09T17:10:09.498Z,72.83789
2023-12-09T17:12:09.654Z,72.5332
2023-12-09T17:14:31.867Z,72.97363
2023-12-09T17:16:31.976Z,72.93359
2023-12-09T17:18:32.384Z,72.96289
2023-12-09T17:20:31.895Z,72.91113
2023-12-09T17:22:32.043Z,72.54004
2023-12-09T17:24:32.317Z,72.44922
2023-12-09T17:26:31.841Z,72.55469
2023-12-09T17:28:31.854Z,72.01172
2023-12-09T17:30:14.510Z,72.12402
2023-12-09T17:32:14.234Z,72.04199
2023-12-09T17:34:14.487Z,71.92188
2023-12-09T17:36:14.442Z,72.1377
2023-12-09T17:38:14.252Z,72.34277
2023-12-09T17:40:14.532Z,72.06738
2023-12-09T17:42:14.458Z,72.0293
2023-12-09T17:45:34.890Z,71.41699
2023-12-09T17:47:34.848Z,71.84668
2023-12-09T17:49:35.274Z,71.47168
2023-12-09T17:51:34.776Z,71.62207
2023-12-09T17:53:34.821Z,71.7793
2023-12-09T17:55:34.932Z,71.49414
2023-12-09T17:57:34.945Z,72.15332
2023-12-09T18:00:48.943Z,71.48828
2023-12-09T18:02:48.504Z,71.37305
2023-12-09T18:04:48.484Z,71.7832
2023-12-09T18:06:48.657Z,71.93848
2023-12-09T18:08:48.857Z,71.91992
2023-12-09T18:10:48.669Z,72.27344
2023-12-09T18:12:48.672Z,72.00684
2023-12-09T18:15:31.695Z,73.4668
2023-12-09T18:17:31.039Z,74.25293
2023-12-09T18:19:31.271Z,72.99609
2023-12-09T18:21:31.562Z,74.26758
2023-12-09T18:23:31.203Z,76.45215
2023-12-09T18:25:31.181Z,75.5957
2023-12-09T18:27:31.127Z,75.87109
2023-12-09T18:30:35.251Z,75.45996
2023-12-09T18:32:35.407Z,74.74805
2023-12-09T18:34:35.298Z,74.72656
2023-12-09T18:36:35.246Z,74.10352
2023-12-09T18:38:35.217Z,73.78516
2023-12-09T18:40:35.214Z,74.84668
2023-12-09T18:42:35.398Z,74.9834
2023-12-09T18:45:57.331Z,74.49805
2023-12-09T18:47:57.418Z,74.89844
2023-12-09T18:49:57.143Z,74.43262
2023-12-09T18:51:57.051Z,74.10254
2023-12-09T18:53:57.085Z,73.78906
2023-12-09T18:55:57.230Z,74.08691
2023-12-09T18:57:57.580Z,74.71777
2023-12-09T19:01:17.778Z,74.30664
2023-12-09T19:03:17.467Z,74.05078
2023-12-09T19:05:17.299Z,73.84668
2023-12-09T19:07:17.359Z,74.35938
2023-12-09T19:09:17.212Z,73.94434
2023-12-09T19:11:17.144Z,73.8877
2023-12-09T19:13:17.396Z,73.69141
2023-12-09T19:16:39.535Z,73.87305
2023-12-09T19:18:39.842Z,73.90723
2023-12-09T19:20:39.481Z,73.75586
2023-12-09T19:22:39.567Z,73.79883
2023-12-09T19:24:39.651Z,73.33691
2023-12-09T19:26:39.496Z,73.4834
2023-12-09T19:28:39.545Z,73.80957
2023-12-09T19:31:27.309Z,73.95508
2023-12-09T19:33:27.774Z,73.36035
2023-12-09T19:35:27.392Z,73.11523
2023-12-09T19:37:27.328Z,73.37891
2023-12-09T19:39:27.773Z,73.35449
2023-12-09T19:41:27.360Z,73.25195
2023-12-09T19:43:27.394Z,74.25098
2023-12-09T19:47:00.421Z,74.46973
2023-12-09T19:49:00.328Z,75.02734
2023-12-09T19:51:00.200Z,74.40723
2023-12-09T19:53:00.237Z,73.7041
2023-12-09T19:55:00.190Z,73.71191
2023-12-09T19:57:00.187Z,74.53711
2023-12-09T19:59:00.205Z,76.05176
2023-12-09T20:01:14.806Z,75.91016
2023-12-09T20:03:14.794Z,75.33496
2023-12-09T20:05:14.709Z,74.62793
2023-12-09T20:07:14.796Z,74.20605
2023-12-09T20:09:14.692Z,73.92969
2023-12-09T20:11:14.624Z,74.00684
2023-12-09T20:13:14.729Z,73.63379
2023-12-09T20:15:14.772Z,73.79004
2023-12-09T20:17:20.559Z,74.83496
2023-12-09T20:19:26.098Z,74.17676
2023-12-09T20:21:20.645Z,73.84277
2023-12-09T20:23:20.605Z,73.59375
2023-12-09T20:25:20.613Z,73.06348
2023-12-09T20:27:20.580Z,73.10059
2023-12-09T20:29:20.481Z,73.25
2023-12-09T20:32:03.906Z,73.1748
2023-12-09T20:34:04.064Z,73.2373
2023-12-09T20:36:03.910Z,72.61426
2023-12-09T20:38:03.827Z,72.62891
2023-12-09T20:40:03.803Z,73.15332
2023-12-09T20:42:03.799Z,73.81445
2023-12-09T20:44:03.883Z,73.54785
2023-12-09T20:46:59.431Z,73.45996
2023-12-09T20:48:59.503Z,73.84961
2023-12-09T20:50:59.141Z,74.24902
2023-12-09T20:52:59.217Z,74.31152
2023-12-09T20:54:59.347Z,74.08789
2023-12-09T20:56:59.161Z,74.9248
2023-12-09T20:58:59.171Z,74.85156
2023-12-09T21:02:36.697Z,74.17871
2023-12-09T21:04:36.633Z,75.01172
2023-12-09T21:06:36.495Z,76.65234
2023-12-09T21:08:36.737Z,76.42969
2023-12-09T21:10:36.427Z,76.87305
2023-12-09T21:12:36.507Z,77.50195
2023-12-09T21:14:36.358Z,78.45996
2023-12-09T21:17:09.875Z,77.43652
2023-12-09T21:19:10.065Z,76.58496
2023-12-09T21:21:10.203Z,76.15234
2023-12-09T21:23:09.899Z,77.36914
2023-12-09T21:25:09.931Z,78.63867
2023-12-09T21:27:10.024Z,77.81641
2023-12-09T21:29:09.872Z,77.0625
2023-12-09T21:31:09.883Z,77.84375
2023-12-09T21:33:04.522Z,77.6748
2023-12-09T21:35:04.511Z,77.0166
2023-12-09T21:37:04.502Z,77.12891
2023-12-09T21:39:04.401Z,77.00977
2023-12-09T21:41:04.516Z,76.41504
2023-12-09T21:43:04.479Z,76.29102
2023-12-09T21:45:04.368Z,76.15039
2023-12-09T21:48:12.162Z,75.5957
2023-12-09T21:50:11.732Z,75.84863
2023-12-09T21:52:11.744Z,75.79199
2023-12-09T21:54:11.884Z,75.50391
2023-12-09T21:56:11.881Z,75.52441
2023-12-09T21:58:11.724Z,75.56055
2023-12-09T22:00:11.869Z,75.43555
2023-12-09T22:02:44.138Z,75.54492
2023-12-09T22:04:44.124Z,75.49023
2023-12-09T22:06:44.285Z,75.3877
2023-12-09T22:08:44.112Z,75.02832
2023-12-09T22:10:44.032Z,74.66699
2023-12-09T22:12:44.370Z,75.0459
2023-12-09T22:14:44.091Z,75.07129
2023-12-09T22:16:44.079Z,75.05957
2023-12-09T22:17:54.246Z,75.0127
2023-12-09T22:19:54.292Z,74.94141
2023-12-09T22:21:54.292Z,74.95508
2023-12-09T22:23:54.093Z,74.78125
2023-12-09T22:25:54.175Z,74.7627
2023-12-09T22:27:54.292Z,74.91113
2023-12-09T22:29:54.250Z,75.14258
2023-12-09T22:31:54.146Z,75.11719
2023-12-09T22:33:36.732Z,74.8584
2023-12-09T22:35:36.207Z,74.77441
2023-12-09T22:37:36.706Z,75.45605
2023-12-09T22:39:36.496Z,74.89844
2023-12-09T22:41:36.293Z,75.04883
2023-12-09T22:43:36.435Z,74.94531
2023-12-09T22:45:36.337Z,74.84082
2023-12-09T22:48:29.109Z,74.86523
2023-12-09T22:50:28.585Z,74.69434
2023-12-09T22:52:29.026Z,74.93457
2023-12-09T22:54:28.787Z,74.68359
2023-12-09T22:56:28.652Z,74.53711
2023-12-09T22:58:28.595Z,74.6123
2023-12-09T23:00:28.843Z,74.79199
2023-12-09T23:04:09.776Z,74.68066
2023-12-09T23:06:09.611Z,74.71484
2023-12-09T23:08:09.360Z,74.5957
2023-12-09T23:10:09.759Z,74.68262
2023-12-09T23:12:09.523Z,74.49219
2023-12-09T23:14:09.747Z,74.55176
2023-12-09T23:16:09.790Z,74.32813
2023-12-09T23:19:10.420Z,74.41406
2023-12-09T23:21:10.668Z,74.76953
2023-12-09T23:23:09.979Z,74.47656
2023-12-09T23:25:10.235Z,74.83789
2023-12-09T23:27:10.035Z,74.79395
2023-12-09T23:29:09.978Z,74.58789
2023-12-09T23:31:09.942Z,74.80957
2023-12-09T23:34:24.263Z,75.00195
2023-12-09T23:36:24.047Z,75.0918
2023-12-09T23:38:23.967Z,74.66406
2023-12-09T23:40:23.906Z,74.79883
2023-12-09T23:42:24.160Z,75.21484
2023-12-09T23:44:23.908Z,75.22461
2023-12-09T23:46:23.899Z,75.31641
2023-12-09T23:49:23.680Z,75.28223
2023-12-09T23:51:23.644Z,75.18359
2023-12-09T23:53:23.481Z,75.93359
2023-12-09T23:55:23.524Z,75.63379
2023-12-09T23:57:23.503Z,75.54297
2023-12-09T23:59:23.737Z,75.42578
